LPA477 UHWW-UHHH
Flight info
| Callsign | LPA477 |
|---|---|
| Flight time | N/A |
| Altitude | 33000 |
| Route | DOLMA2F DOLMA B356 TD B355 ARDEL ARDEL6F |
| Aircraft | B738/M-SDE2E3FGHIRWXY/LB1 |
Departure
| Time | 2026-04-20 19:52 |
|---|---|
| Airport | Vladivostok International Airport (UHWW) |
Arrival
| Time | N/A |
|---|---|
| Airport | Khabarovsk Novy Airport (UHHH) |
| Time | Latitude | Longitude | Altitude | Speed | Heading |
|---|---|---|---|---|---|
| 2026-04-20 18:40 | 43.39932 | 132.16548 | 36 ft | 0 kts | 151° |
| 2026-04-20 19:38 | 43.39919 | 132.16557 | 36 ft | 3 kts | 149° |
| 2026-04-20 19:38 | 43.39912 | 132.16563 | 36 ft | 1 kts | 149° |
| 2026-04-20 19:38 | 43.39897 | 132.16579 | 36 ft | 4 kts | 133° |
| 2026-04-20 19:38 | 43.39896 | 132.16638 | 35 ft | 9 kts | 68° |
| 2026-04-20 19:39 | 43.39928 | 132.16719 | 33 ft | 9 kts | 62° |
| 2026-04-20 19:39 | 43.39957 | 132.16792 | 33 ft | 8 kts | 61° |
| 2026-04-20 19:39 | 43.39988 | 132.16867 | 31 ft | 9 kts | 60° |
| 2026-04-20 19:39 | 43.40014 | 132.16931 | 29 ft | 4 kts | 60° |
| 2026-04-20 19:40 | 43.40034 | 132.16980 | 28 ft | 6 kts | 62° |
| 2026-04-20 19:40 | 43.40058 | 132.17042 | 27 ft | 7 kts | 60° |
| 2026-04-20 19:40 | 43.40097 | 132.17088 | 26 ft | 7 kts | 6° |
| 2026-04-20 19:40 | 43.40130 | 132.17078 | 25 ft | 0 kts | 332° |
| 2026-04-20 19:41 | 43.40131 | 132.17078 | 25 ft | 0 kts | 332° |
| 2026-04-20 19:42 | 43.40132 | 132.17076 | 25 ft | 0 kts | 332° |
| 2026-04-20 19:42 | 43.40155 | 132.17059 | 25 ft | 7 kts | 331° |
| 2026-04-20 19:42 | 43.40200 | 132.17026 | 24 ft | 0 kts | 331° |
| 2026-04-20 19:43 | 43.40204 | 132.17023 | 24 ft | 1 kts | 331° |
| 2026-04-20 19:43 | 43.40222 | 132.17009 | 23 ft | 3 kts | 331° |
| 2026-04-20 19:44 | 43.40224 | 132.17007 | 23 ft | 0 kts | 331° |
| 2026-04-20 19:44 | 43.40229 | 132.17003 | 23 ft | 2 kts | 331° |
| 2026-04-20 19:44 | 43.40248 | 132.16989 | 23 ft | 3 kts | 331° |
| 2026-04-20 19:44 | 43.40271 | 132.16971 | 23 ft | 4 kts | 330° |
| 2026-04-20 19:45 | 43.40283 | 132.16963 | 23 ft | 0 kts | 330° |
| 2026-04-20 19:47 | 43.40285 | 132.16962 | 23 ft | 1 kts | 330° |
| 2026-04-20 19:47 | 43.40297 | 132.16952 | 23 ft | 2 kts | 331° |
| 2026-04-20 19:47 | 43.40317 | 132.16937 | 23 ft | 3 kts | 331° |
| 2026-04-20 19:48 | 43.40337 | 132.16922 | 23 ft | 3 kts | 330° |
| 2026-04-20 19:48 | 43.40340 | 132.16919 | 23 ft | 0 kts | 330° |
| 2026-04-20 19:49 | 43.40344 | 132.16917 | 23 ft | 1 kts | 330° |
| 2026-04-20 19:49 | 43.40371 | 132.16896 | 23 ft | 6 kts | 330° |
| 2026-04-20 19:49 | 43.40420 | 132.16858 | 22 ft | 9 kts | 330° |
| 2026-04-20 19:50 | 43.40443 | 132.16808 | 23 ft | 7 kts | 234° |
| 2026-04-20 19:50 | 43.40427 | 132.16777 | 23 ft | 0 kts | 238° |
| 2026-04-20 19:50 | 43.40422 | 132.16765 | 23 ft | 0 kts | 238° |
| 2026-04-20 19:51 | 43.40420 | 132.16762 | 23 ft | 1 kts | 238° |
| 2026-04-20 19:51 | 43.40419 | 132.16760 | 23 ft | 0 kts | 238° |
| 2026-04-20 19:51 | 43.40411 | 132.16742 | 24 ft | 8 kts | 238° |
| 2026-04-20 19:51 | 43.40287 | 132.16431 | 28 ft | 72 kts | 242° |
| 2026-04-20 19:52 | 43.39928 | 132.15546 | 47 ft | 134 kts | 240° |
| 2026-04-20 19:52 | 43.39392 | 132.14206 | 206 ft | 172 kts | 242° |
| 2026-04-20 19:52 | 43.38832 | 132.12723 | 938 ft | 177 kts | 248° |
| 2026-04-20 19:52 | 43.38707 | 132.11137 | 1890 ft | 170 kts | 279° |
| 2026-04-20 19:53 | 43.38756 | 132.09521 | 2486 ft | 172 kts | 260° |
| 2026-04-20 19:53 | 43.38519 | 132.07942 | 3219 ft | 172 kts | 255° |
| 2026-04-20 19:53 | 43.38035 | 132.06369 | 3728 ft | 185 kts | 243° |
| 2026-04-20 19:53 | 43.37308 | 132.04791 | 4210 ft | 198 kts | 240° |
| 2026-04-20 19:54 | 43.36527 | 132.03152 | 4657 ft | 212 kts | 242° |
| 2026-04-20 19:54 | 43.35692 | 132.01401 | 4987 ft | 222 kts | 241° |
| 2026-04-20 19:54 | 43.34834 | 131.99606 | 4969 ft | 222 kts | 241° |
| 2026-04-20 19:54 | 43.33976 | 131.97813 | 4979 ft | 223 kts | 241° |
| 2026-04-20 19:55 | 43.33100 | 131.95973 | 4989 ft | 240 kts | 241° |
| 2026-04-20 19:55 | 43.32176 | 131.94032 | 4970 ft | 241 kts | 241° |
| 2026-04-20 19:55 | 43.31243 | 131.92062 | 4979 ft | 244 kts | 241° |
| 2026-04-20 19:55 | 43.30321 | 131.90118 | 4981 ft | 243 kts | 241° |
| 2026-04-20 19:56 | 43.29698 | 131.88808 | 4968 ft | 242 kts | 242° |
| 2026-04-20 19:56 | 43.28688 | 131.86078 | 4972 ft | 240 kts | 254° |
| 2026-04-20 19:56 | 43.28293 | 131.83872 | 4965 ft | 238 kts | 264° |
| 2026-04-20 19:56 | 43.28235 | 131.81599 | 4967 ft | 235 kts | 275° |
| 2026-04-20 19:57 | 43.28520 | 131.79387 | 4973 ft | 241 kts | 285° |
| 2026-04-20 19:57 | 43.29189 | 131.77216 | 5756 ft | 244 kts | 298° |
| 2026-04-20 19:57 | 43.30139 | 131.75372 | 6859 ft | 236 kts | 308° |
| 2026-04-20 19:57 | 43.31355 | 131.73799 | 7568 ft | 244 kts | 318° |
| 2026-04-20 19:58 | 43.32802 | 131.72578 | 8406 ft | 247 kts | 328° |
| 2026-04-20 19:58 | 43.34437 | 131.71745 | 9137 ft | 256 kts | 338° |
| 2026-04-20 19:58 | 43.36213 | 131.71320 | 9612 ft | 266 kts | 347° |
| 2026-04-20 19:58 | 43.38097 | 131.71313 | 9673 ft | 273 kts | 356° |
| 2026-04-20 19:59 | 43.39988 | 131.71774 | 9685 ft | 278 kts | 6° |
| 2026-04-20 19:59 | 43.41847 | 131.72704 | 9673 ft | 287 kts | 16° |
| 2026-04-20 19:59 | 43.43692 | 131.73955 | 9908 ft | 300 kts | 19° |
| 2026-04-20 19:59 | 43.45542 | 131.75291 | 10701 ft | 303 kts | 19° |
| 2026-04-20 20:00 | 43.47453 | 131.76663 | 11122 ft | 318 kts | 19° |
| 2026-04-20 20:00 | 43.49471 | 131.78096 | 11511 ft | 333 kts | 19° |
| 2026-04-20 20:00 | 43.51598 | 131.79579 | 11970 ft | 345 kts | 19° |
| 2026-04-20 20:00 | 43.53763 | 131.81076 | 12697 ft | 349 kts | 19° |
| 2026-04-20 20:01 | 43.55950 | 131.82585 | 13490 ft | 353 kts | 19° |
| 2026-04-20 20:01 | 43.58164 | 131.84119 | 14282 ft | 356 kts | 19° |
| 2026-04-20 20:01 | 43.60398 | 131.85661 | 15028 ft | 360 kts | 19° |
| 2026-04-20 20:01 | 43.62665 | 131.87222 | 15716 ft | 366 kts | 19° |
| 2026-04-20 20:02 | 43.64979 | 131.88809 | 16407 ft | 371 kts | 19° |
| 2026-04-20 20:02 | 43.67202 | 131.90677 | 17083 ft | 387 kts | 33° |
| 2026-04-20 20:02 | 43.69017 | 131.93550 | 17883 ft | 400 kts | 49° |
| 2026-04-20 20:02 | 43.70502 | 131.96851 | 18466 ft | 409 kts | 55° |
| 2026-04-20 20:03 | 43.71876 | 132.00313 | 19080 ft | 416 kts | 56° |
| 2026-04-20 20:03 | 43.73282 | 132.03854 | 19771 ft | 418 kts | 56° |
| 2026-04-20 20:03 | 43.74732 | 132.07397 | 20334 ft | 423 kts | 55° |
| 2026-04-20 20:03 | 43.76227 | 132.10953 | 20852 ft | 430 kts | 54° |
| 2026-04-20 20:04 | 43.77765 | 132.14539 | 21422 ft | 434 kts | 53° |
| 2026-04-20 20:04 | 43.79317 | 132.18112 | 22054 ft | 436 kts | 54° |
| 2026-04-20 20:04 | 43.80907 | 132.21747 | 22537 ft | 442 kts | 53° |
| 2026-04-20 20:04 | 43.82558 | 132.25505 | 23021 ft | 448 kts | 53° |
| 2026-04-20 20:05 | 43.84179 | 132.29195 | 23574 ft | 452 kts | 53° |
| 2026-04-20 20:05 | 43.85841 | 132.32974 | 24043 ft | 457 kts | 54° |
| 2026-04-20 20:05 | 43.87519 | 132.36792 | 24572 ft | 460 kts | 54° |
| 2026-04-20 20:05 | 43.89206 | 132.40634 | 25008 ft | 465 kts | 54° |
| 2026-04-20 20:06 | 43.90906 | 132.44511 | 25466 ft | 468 kts | 54° |
| 2026-04-20 20:06 | 43.92627 | 132.48444 | 25948 ft | 471 kts | 54° |
| 2026-04-20 20:06 | 43.94325 | 132.52336 | 26631 ft | 467 kts | 55° |
| 2026-04-20 20:06 | 43.96006 | 132.56200 | 27276 ft | 464 kts | 55° |
| 2026-04-20 20:07 | 43.97662 | 132.60016 | 27850 ft | 461 kts | 55° |
| 2026-04-20 20:07 | 43.99314 | 132.63818 | 28314 ft | 459 kts | 56° |
| 2026-04-20 20:07 | 44.00915 | 132.67502 | 28706 ft | 460 kts | 56° |
| 2026-04-20 20:07 | 44.02601 | 132.71381 | 29045 ft | 462 kts | 57° |
| 2026-04-20 20:08 | 44.04259 | 132.75205 | 29390 ft | 463 kts | 57° |
| 2026-04-20 20:08 | 44.05929 | 132.79066 | 29790 ft | 461 kts | 57° |
| 2026-04-20 20:08 | 44.07568 | 132.82863 | 30213 ft | 459 kts | 57° |
| 2026-04-20 20:08 | 44.09215 | 132.86684 | 30543 ft | 457 kts | 58° |
| 2026-04-20 20:09 | 44.10804 | 132.90367 | 30893 ft | 455 kts | 58° |
| 2026-04-20 20:09 | 44.12408 | 132.94095 | 31228 ft | 454 kts | 58° |
| 2026-04-20 20:09 | 44.14035 | 132.97884 | 31525 ft | 454 kts | 58° |
| 2026-04-20 20:09 | 44.15642 | 133.01628 | 31830 ft | 454 kts | 58° |
| 2026-04-20 20:10 | 44.17269 | 133.05421 | 32134 ft | 453 kts | 58° |
| 2026-04-20 20:10 | 44.18956 | 133.09120 | 32451 ft | 451 kts | 55° |
| 2026-04-20 20:10 | 44.20887 | 133.12585 | 32560 ft | 454 kts | 46° |
| 2026-04-20 20:11 | 44.25661 | 133.18349 | 32603 ft | 452 kts | 35° |
| 2026-04-20 20:11 | 44.30748 | 133.23453 | 32606 ft | 450 kts | 33° |
| 2026-04-20 20:12 | 44.35732 | 133.28378 | 32591 ft | 452 kts | 34° |
| 2026-04-20 20:12 | 44.40847 | 133.33545 | 32582 ft | 452 kts | 34° |
| 2026-04-20 20:13 | 44.48476 | 133.41400 | 32582 ft | 453 kts | 35° |
| 2026-04-20 20:13 | 44.53540 | 133.46661 | 32581 ft | 454 kts | 35° |
| 2026-04-20 20:14 | 44.58719 | 133.52058 | 32707 ft | 470 kts | 35° |
| 2026-04-20 20:14 | 44.64071 | 133.57649 | 32854 ft | 484 kts | 36° |
| 2026-04-20 20:15 | 44.66764 | 133.60467 | 33152 ft | 483 kts | 36° |
| 2026-04-20 20:15 | 44.69466 | 133.63301 | 33549 ft | 481 kts | 36° |
| 2026-04-20 20:15 | 44.72126 | 133.66095 | 34103 ft | 473 kts | 36° |
| 2026-04-20 20:15 | 44.74714 | 133.68819 | 34762 ft | 462 kts | 36° |
| 2026-04-20 20:16 | 44.77279 | 133.71523 | 35386 ft | 451 kts | 36° |
| 2026-04-20 20:16 | 44.79750 | 133.74129 | 35870 ft | 444 kts | 36° |
| 2026-04-20 20:16 | 44.82238 | 133.76755 | 35988 ft | 448 kts | 36° |
| 2026-04-20 20:16 | 44.84775 | 133.79431 | 36039 ft | 454 kts | 36° |
| 2026-04-20 20:17 | 44.89892 | 133.84839 | 35941 ft | 471 kts | 36° |
| 2026-04-20 20:17 | 44.92565 | 133.87662 | 35416 ft | 484 kts | 36° |
| 2026-04-20 20:17 | 44.95297 | 133.90472 | 34509 ft | 493 kts | 35° |
| 2026-04-20 20:18 | 44.98150 | 133.93332 | 33339 ft | 507 kts | 34° |
| 2026-04-20 20:18 | 45.01054 | 133.96205 | 32370 ft | 519 kts | 34° |
| 2026-04-20 20:18 | 45.04087 | 133.99054 | 31520 ft | 527 kts | 30° |
| 2026-04-20 20:18 | 45.07268 | 134.01509 | 31028 ft | 521 kts | 25° |
| 2026-04-20 20:19 | 45.10557 | 134.03552 | 30621 ft | 514 kts | 19° |
| 2026-04-20 20:19 | 45.13936 | 134.05148 | 30038 ft | 506 kts | 14° |
| 2026-04-20 20:19 | 45.17346 | 134.06279 | 29059 ft | 504 kts | 8° |
| 2026-04-20 20:19 | 45.20798 | 134.06946 | 27830 ft | 506 kts | 2° |
| 2026-04-20 20:20 | 45.24324 | 134.07134 | 26553 ft | 507 kts | 356° |
| 2026-04-20 20:20 | 45.27832 | 134.06830 | 25160 ft | 505 kts | 350° |
| 2026-04-20 20:20 | 45.31240 | 134.06029 | 24135 ft | 491 kts | 343° |
| 2026-04-20 20:20 | 45.34452 | 134.04768 | 23609 ft | 468 kts | 337° |
| 2026-04-20 20:21 | 45.37390 | 134.03128 | 23274 ft | 441 kts | 330° |
| 2026-04-20 20:21 | 45.40016 | 134.01152 | 23247 ft | 408 kts | 323° |
| 2026-04-20 20:21 | 45.42284 | 133.98930 | 23256 ft | 378 kts | 316° |
| 2026-04-20 20:21 | 45.44183 | 133.96521 | 23271 ft | 349 kts | 308° |
| 2026-04-20 20:22 | 45.45702 | 133.93990 | 23320 ft | 327 kts | 300° |
| 2026-04-20 20:22 | 45.46881 | 133.91280 | 23676 ft | 316 kts | 291° |
| 2026-04-20 20:22 | 45.47949 | 133.88577 | 24170 ft | 314 kts | 297° |
| 2026-04-20 20:22 | 45.49282 | 133.86081 | 24500 ft | 319 kts | 305° |
| 2026-04-20 20:23 | 45.50912 | 133.83803 | 24542 ft | 334 kts | 314° |
| 2026-04-20 20:23 | 45.52827 | 133.81801 | 24544 ft | 349 kts | 322° |
| 2026-04-20 20:23 | 45.55010 | 133.80124 | 24543 ft | 360 kts | 331° |
| 2026-04-20 20:23 | 45.57363 | 133.78868 | 24544 ft | 362 kts | 339° |
| 2026-04-20 20:24 | 45.59843 | 133.78072 | 24542 ft | 367 kts | 347° |
| 2026-04-20 20:24 | 45.62377 | 133.77753 | 24542 ft | 370 kts | 355° |
| 2026-04-20 20:24 | 45.64996 | 133.77922 | 24544 ft | 372 kts | 4° |
| 2026-04-20 20:24 | 45.67562 | 133.78583 | 24549 ft | 376 kts | 12° |
| 2026-04-20 20:25 | 45.70128 | 133.79756 | 24543 ft | 392 kts | 20° |
| 2026-04-20 20:25 | 45.72666 | 133.81448 | 24545 ft | 406 kts | 28° |
| 2026-04-20 20:25 | 45.75090 | 133.83612 | 24545 ft | 420 kts | 36° |
| 2026-04-20 20:25 | 45.77240 | 133.86058 | 24546 ft | 432 kts | 43° |
| 2026-04-20 20:26 | 45.79389 | 133.89116 | 24544 ft | 443 kts | 50° |
| 2026-04-20 20:26 | 45.81348 | 133.92622 | 24547 ft | 454 kts | 57° |
| 2026-04-20 20:26 | 45.83186 | 133.96317 | 24546 ft | 453 kts | 54° |
| 2026-04-20 20:26 | 45.85311 | 133.99583 | 24547 ft | 442 kts | 44° |
| 2026-04-20 20:27 | 45.87759 | 134.02310 | 24553 ft | 443 kts | 36° |
| 2026-04-20 20:27 | 45.90381 | 134.04704 | 24554 ft | 445 kts | 32° |
| 2026-04-20 20:27 | 45.93025 | 134.06978 | 24553 ft | 445 kts | 32° |
| 2026-04-20 20:27 | 45.95672 | 134.09279 | 24555 ft | 445 kts | 32° |
| 2026-04-20 20:28 | 45.97442 | 134.10866 | 24547 ft | 445 kts | 33° |
| 2026-04-20 20:28 | 46.00915 | 134.14117 | 24559 ft | 445 kts | 35° |
| 2026-04-20 20:28 | 46.03461 | 134.16600 | 24567 ft | 444 kts | 36° |
| 2026-04-20 20:28 | 46.06010 | 134.19148 | 24577 ft | 445 kts | 36° |
| 2026-04-20 20:29 | 46.08559 | 134.21739 | 24603 ft | 447 kts | 37° |
| 2026-04-20 20:29 | 46.10883 | 134.24126 | 24659 ft | 446 kts | 37° |
| 2026-04-20 20:29 | 46.13425 | 134.26750 | 24704 ft | 447 kts | 37° |
| 2026-04-20 20:29 | 46.15978 | 134.29398 | 24723 ft | 450 kts | 38° |
| 2026-04-20 20:30 | 46.18507 | 134.32027 | 24744 ft | 450 kts | 37° |
| 2026-04-20 20:30 | 46.21066 | 134.34691 | 24773 ft | 450 kts | 38° |
| 2026-04-20 20:30 | 46.23587 | 134.37320 | 24795 ft | 448 kts | 38° |
| 2026-04-20 20:30 | 46.26142 | 134.39987 | 24768 ft | 449 kts | 38° |
| 2026-04-20 20:31 | 46.28652 | 134.42610 | 24782 ft | 449 kts | 38° |
| 2026-04-20 20:31 | 46.31224 | 134.45299 | 24802 ft | 450 kts | 38° |
| 2026-04-20 20:31 | 46.33762 | 134.47958 | 24809 ft | 452 kts | 38° |
| 2026-04-20 20:31 | 46.36286 | 134.50604 | 24873 ft | 452 kts | 38° |
| 2026-04-20 20:32 | 46.38837 | 134.53281 | 24890 ft | 451 kts | 38° |
| 2026-04-20 20:32 | 46.41396 | 134.55971 | 24899 ft | 454 kts | 38° |
| 2026-04-20 20:32 | 46.43936 | 134.58643 | 24834 ft | 453 kts | 39° |
| 2026-04-20 20:32 | 46.46486 | 134.61327 | 24835 ft | 454 kts | 39° |